createdAt,value
2022-09-15T00:01:51.358Z,12.62
2022-09-15T00:04:17.806Z,12.59
2022-09-15T00:06:44.153Z,12.68
2022-09-15T00:09:10.525Z,12.56
2022-09-15T00:11:38.012Z,12.51
2022-09-15T00:14:06.810Z,12.55
2022-09-15T00:16:33.904Z,12.46
2022-09-15T00:19:00.758Z,12.43
2022-09-15T00:21:31.907Z,12.51
2022-09-15T00:24:00.150Z,12.51
2022-09-15T00:26:28.497Z,12.59
2022-09-15T00:28:56.762Z,12.55
2022-09-15T00:31:25.408Z,12.70
2022-09-15T00:33:54.990Z,12.75
2022-09-15T00:36:23.096Z,12.78
2022-09-15T00:38:49.447Z,12.92
2022-09-15T00:41:18.531Z,12.99
2022-09-15T00:44:02.086Z,13.14
2022-09-15T00:46:37.252Z,13.16
2022-09-15T00:49:15.392Z,13.28
2022-09-15T00:51:51.058Z,13.32
2022-09-15T00:54:23.105Z,13.42
2022-09-15T00:56:53.117Z,13.50
2022-09-15T00:59:24.033Z,13.52
2022-09-15T01:01:59.611Z,13.60
2022-09-15T01:04:26.395Z,13.54
2022-09-15T01:06:58.445Z,13.65
2022-09-15T01:09:29.515Z,13.68
2022-09-15T01:11:56.180Z,13.72
2022-09-15T01:14:22.549Z,13.58
2022-09-15T01:17:22.453Z,13.70
2022-09-15T01:20:23.736Z,13.71
2022-09-15T01:23:12.805Z,13.70
2022-09-15T01:26:34.846Z,13.69
2022-09-15T01:29:40.534Z,13.72
2022-09-15T01:32:33.027Z,13.61
2022-09-15T01:35:17.175Z,13.68
2022-09-15T01:37:50.759Z,13.65
2022-09-15T01:40:19.696Z,13.63
2022-09-15T01:42:50.052Z,13.60
2022-09-15T01:45:23.220Z,13.54
2022-09-15T01:47:53.989Z,13.57
2022-09-15T01:50:29.957Z,13.63
2022-09-15T01:53:03.118Z,13.64
2022-09-15T01:55:37.979Z,13.47
2022-09-15T01:58:04.583Z,13.58
2022-09-15T02:00:38.007Z,13.62
2022-09-15T02:03:22.361Z,13.54
2022-09-15T02:05:58.930Z,13.62
2022-09-15T02:08:33.242Z,13.49
2022-09-15T02:11:15.443Z,13.70
2022-09-15T02:13:48.592Z,13.66
2022-09-15T02:16:21.764Z,13.67
2022-09-15T02:19:00.296Z,13.61
2022-09-15T02:21:34.729Z,13.62
2022-09-15T02:24:07.823Z,13.64
2022-09-15T02:26:36.960Z,13.55
2022-09-15T02:29:09.128Z,13.66
2022-09-15T02:31:39.736Z,13.66
2022-09-15T02:34:13.739Z,13.64
2022-09-15T02:36:41.467Z,13.59
2022-09-15T02:39:13.446Z,13.54
2022-09-15T02:41:40.017Z,13.55
2022-09-15T02:44:09.457Z,13.47
2022-09-15T02:46:36.674Z,13.51
2022-09-15T02:49:03.702Z,13.64
2022-09-15T02:51:31.022Z,13.63
2022-09-15T02:53:57.410Z,13.58
2022-09-15T02:56:23.792Z,13.56
2022-09-15T02:58:50.209Z,13.64
2022-09-15T03:01:17.022Z,13.66
2022-09-15T03:03:45.491Z,13.68
2022-09-15T03:06:20.973Z,13.77
2022-09-15T03:08:50.725Z,13.69
2022-09-15T03:11:19.253Z,13.71
2022-09-15T03:13:46.303Z,13.66
2022-09-15T03:16:15.386Z,13.66
2022-09-15T03:18:42.092Z,13.59
2022-09-15T03:21:11.289Z,13.61
2022-09-15T03:23:37.948Z,13.57
2022-09-15T03:26:05.690Z,13.63
2022-09-15T03:28:32.496Z,13.65
2022-09-15T03:30:59.378Z,13.63
2022-09-15T03:33:25.939Z,13.64
2022-09-15T03:35:53.415Z,13.60
2022-09-15T03:38:20.002Z,13.60
2022-09-15T03:41:04.620Z,13.65
2022-09-15T03:43:32.115Z,13.61
2022-09-15T03:45:58.947Z,13.54
2022-09-15T03:48:26.449Z,13.51
2022-09-15T03:50:53.300Z,13.44
2022-09-15T03:53:20.130Z,13.49
2022-09-15T03:55:48.357Z,13.43
2022-09-15T03:58:16.210Z,13.40
2022-09-15T04:00:43.629Z,13.36
2022-09-15T04:03:10.329Z,13.39
2022-09-15T04:05:36.796Z,13.39
2022-09-15T04:08:03.408Z,13.45
2022-09-15T04:10:29.884Z,13.38
2022-09-15T04:12:57.028Z,13.49
2022-09-15T04:15:23.714Z,13.40
2022-09-15T04:17:50.067Z,13.26
2022-09-15T04:20:17.170Z,13.29
2022-09-15T04:22:44.756Z,13.25
2022-09-15T04:25:11.487Z,13.12
2022-09-15T04:27:38.584Z,13.28
2022-09-15T04:30:07.325Z,13.18
2022-09-15T04:32:35.688Z,13.27
2022-09-15T04:35:03.965Z,13.23
2022-09-15T04:37:31.040Z,13.28
2022-09-15T04:39:57.478Z,13.14
2022-09-15T04:42:23.978Z,13.12
2022-09-15T04:44:50.895Z,13.14
2022-09-15T04:47:17.560Z,13.16
2022-09-15T04:49:44.005Z,13.13
2022-09-15T04:52:10.368Z,13.11
2022-09-15T04:54:36.872Z,13.17
2022-09-15T04:57:03.401Z,12.95
2022-09-15T04:59:29.843Z,13.17
2022-09-15T05:01:56.399Z,13.02
2022-09-15T05:04:22.861Z,12.78
2022-09-15T05:06:49.225Z,12.88
2022-09-15T05:09:15.583Z,12.86
2022-09-15T05:11:41.945Z,12.81
2022-09-15T05:14:09.558Z,12.78
2022-09-15T05:16:36.340Z,12.73
2022-09-15T05:19:04.516Z,12.77
2022-09-15T05:21:31.534Z,12.58
2022-09-15T05:23:58.070Z,12.72
2022-09-15T05:26:28.053Z,12.73
2022-09-15T05:28:55.321Z,12.78
2022-09-15T05:31:31.258Z,12.77
2022-09-15T05:34:00.337Z,12.78
2022-09-15T05:36:26.752Z,12.71
2022-09-15T05:38:55.472Z,12.74
2022-09-15T05:41:21.901Z,12.65
2022-09-15T05:43:53.454Z,12.71
2022-09-15T05:46:20.525Z,12.71
2022-09-15T05:48:47.068Z,12.76
2022-09-15T05:51:14.872Z,12.75
2022-09-15T05:53:41.675Z,12.79
2022-09-15T05:56:11.987Z,12.71
2022-09-15T05:58:40.548Z,12.84
2022-09-15T06:01:24.917Z,12.92
2022-09-15T06:03:51.811Z,12.94
2022-09-15T06:06:18.499Z,13.01
2022-09-15T06:08:50.028Z,13.01
2022-09-15T06:11:20.884Z,13.10
2022-09-15T06:13:47.429Z,13.17
2022-09-15T06:16:18.278Z,13.18
2022-09-15T06:18:45.919Z,13.32
2022-09-15T06:21:17.806Z,13.47
2022-09-15T06:23:49.927Z,13.35
2022-09-15T06:26:19.079Z,13.57
2022-09-15T06:28:51.404Z,13.60
2022-09-15T06:31:18.933Z,13.78
2022-09-15T06:33:53.982Z,13.75
2022-09-15T06:36:22.775Z,13.83
2022-09-15T06:38:49.270Z,13.90
2022-09-15T06:41:16.033Z,13.88
2022-09-15T06:43:42.676Z,13.83
2022-09-15T06:46:20.617Z,13.95
2022-09-15T06:48:48.452Z,14.10
2022-09-15T06:51:17.464Z,14.43
2022-09-15T06:53:44.691Z,14.84
2022-09-15T06:56:13.828Z,14.90
2022-09-15T06:58:42.059Z,15.17
2022-09-15T07:01:12.207Z,15.18
2022-09-15T07:03:40.276Z,15.47
2022-09-15T07:06:07.537Z,15.47
2022-09-15T07:08:34.062Z,15.68
2022-09-15T07:11:00.749Z,15.76
2022-09-15T07:13:27.150Z,16.09
2022-09-15T07:15:55.591Z,15.92
2022-09-15T07:18:22.662Z,16.02
2022-09-15T07:20:49.169Z,16.20
2022-09-15T07:23:15.938Z,16.19
2022-09-15T07:25:44.038Z,16.13
2022-09-15T07:28:16.148Z,15.68
2022-09-15T07:30:43.475Z,15.84
2022-09-15T07:33:13.076Z,16.15
2022-09-15T07:35:43.504Z,16.37
2022-09-15T07:38:10.799Z,16.52
2022-09-15T07:40:38.405Z,16.92
2022-09-15T07:43:05.914Z,16.95
2022-09-15T07:45:33.310Z,17.16
2022-09-15T07:47:59.794Z,16.96
2022-09-15T07:50:26.212Z,17.52
2022-09-15T07:52:56.022Z,17.88
2022-09-15T07:55:23.104Z,18.03
2022-09-15T07:57:59.569Z,17.90
2022-09-15T08:00:26.786Z,18.41
2022-09-15T08:02:53.432Z,17.95
2022-09-15T08:05:19.931Z,17.71
2022-09-15T08:07:46.331Z,17.39
2022-09-15T08:10:12.764Z,17.53
2022-09-15T08:12:40.662Z,17.35
2022-09-15T08:15:07.391Z,17.29
2022-09-15T08:17:34.587Z,17.49
2022-09-15T08:20:01.610Z,17.42
2022-09-15T08:22:28.064Z,17.00
2022-09-15T08:24:54.431Z,16.64
2022-09-15T08:27:20.922Z,16.83
2022-09-15T08:29:47.311Z,16.36
2022-09-15T08:32:13.683Z,16.29
2022-09-15T08:34:40.101Z,16.33
2022-09-15T08:37:06.484Z,15.98
2022-09-15T08:39:32.834Z,16.14
2022-09-15T08:42:02.110Z,16.06
2022-09-15T08:44:49.488Z,16.25
2022-09-15T08:47:26.729Z,16.40
2022-09-15T08:50:07.879Z,16.70
2022-09-15T08:52:40.534Z,16.77
2022-09-15T08:55:43.683Z,17.31
2022-09-15T08:58:16.419Z,17.87
2022-09-15T09:00:48.579Z,17.86
2022-09-15T09:03:21.993Z,17.85
2022-09-15T09:06:07.243Z,18.49
2022-09-15T09:09:03.217Z,18.43
2022-09-15T09:12:00.129Z,18.56
2022-09-15T09:14:32.383Z,18.52
2022-09-15T09:17:19.792Z,18.30
2022-09-15T09:20:01.897Z,18.26
2022-09-15T09:22:33.048Z,18.08
2022-09-15T09:25:11.675Z,18.08
2022-09-15T09:27:49.143Z,18.30
2022-09-15T09:30:18.969Z,17.88
2022-09-15T09:32:51.106Z,18.05
2022-09-15T09:35:28.551Z,18.26
2022-09-15T09:37:55.399Z,17.84
2022-09-15T09:40:22.678Z,17.30
2022-09-15T09:42:49.281Z,17.07
2022-09-15T09:45:18.611Z,16.99
2022-09-15T09:47:46.338Z,16.81
2022-09-15T09:50:38.964Z,16.20
2022-09-15T09:53:33.510Z,15.69
2022-09-15T09:56:23.482Z,15.22
2022-09-15T09:58:50.260Z,14.87
2022-09-15T10:01:19.274Z,15.14
2022-09-15T10:03:46.719Z,15.33
2022-09-15T10:06:22.133Z,15.34
2022-09-15T10:09:03.658Z,15.41
2022-09-15T10:11:53.804Z,15.52
2022-09-15T10:14:25.859Z,15.61
2022-09-15T10:17:17.636Z,15.71
2022-09-15T10:19:43.955Z,15.31
2022-09-15T10:22:22.266Z,15.18
2022-09-15T10:24:50.109Z,14.89
2022-09-15T10:27:33.539Z,14.72
2022-09-15T10:30:14.853Z,14.78
2022-09-15T10:32:43.153Z,15.03
2022-09-15T10:35:20.955Z,15.31
2022-09-15T10:37:56.370Z,15.55
2022-09-15T10:40:46.079Z,15.89
2022-09-15T10:43:55.085Z,15.93
2022-09-15T10:46:39.539Z,16.16
2022-09-15T10:49:51.908Z,17.14
2022-09-15T10:52:33.482Z,17.68
2022-09-15T10:55:22.010Z,18.28
2022-09-15T10:58:28.328Z,17.96
2022-09-15T11:01:21.739Z,18.19
2022-09-15T11:04:33.552Z,18.23
2022-09-15T11:07:38.019Z,18.05
2022-09-15T11:10:18.536Z,17.84
2022-09-15T11:13:13.180Z,18.04
2022-09-15T11:15:57.726Z,17.71
2022-09-15T11:18:36.164Z,17.91
2022-09-15T11:21:21.681Z,17.30
2022-09-15T11:24:00.491Z,17.25
2022-09-15T11:26:52.270Z,17.06
2022-09-15T11:29:25.632Z,16.80
2022-09-15T11:31:58.281Z,16.46
2022-09-15T11:34:36.258Z,16.50
2022-09-15T11:37:07.224Z,16.56
2022-09-15T11:39:41.331Z,16.62
2022-09-15T11:42:20.058Z,16.91
2022-09-15T11:44:47.899Z,17.02
2022-09-15T11:47:19.293Z,16.93
2022-09-15T11:49:51.003Z,17.07
2022-09-15T11:52:35.859Z,17.20
2022-09-15T11:55:18.181Z,17.38
2022-09-15T11:57:52.548Z,18.06
2022-09-15T12:00:20.708Z,18.21
2022-09-15T12:02:54.957Z,18.08
2022-09-15T12:05:27.656Z,18.06
2022-09-15T12:08:03.218Z,17.94
2022-09-15T12:10:34.147Z,18.42
2022-09-15T12:13:01.171Z,18.78
2022-09-15T12:15:28.307Z,18.89
2022-09-15T12:18:43.865Z,18.68
2022-09-15T12:21:27.742Z,18.78
2022-09-15T12:24:38.539Z,19.08
2022-09-15T12:27:05.178Z,19.74
2022-09-15T12:29:42.025Z,19.51
2022-09-15T12:32:31.902Z,19.09
2022-09-15T12:35:17.587Z,18.99
2022-09-15T12:37:54.606Z,19.07
2022-09-15T12:40:30.254Z,19.16
2022-09-15T12:42:57.467Z,18.85
2022-09-15T12:45:30.508Z,18.38
2022-09-15T12:48:13.846Z,18.21
2022-09-15T12:50:53.188Z,18.00
2022-09-15T12:53:32.217Z,18.21
2022-09-15T12:56:02.696Z,18.37
2022-09-15T12:58:33.924Z,18.11
2022-09-15T13:01:18.935Z,18.30
2022-09-15T13:03:45.647Z,18.17
2022-09-15T13:06:27.012Z,18.22
2022-09-15T13:09:03.238Z,18.75
2022-09-15T13:11:41.488Z,18.67
2022-09-15T13:14:27.755Z,18.75
2022-09-15T13:17:04.228Z,19.53
2022-09-15T13:19:33.524Z,19.10
2022-09-15T13:22:12.090Z,19.01
2022-09-15T13:25:01.823Z,18.70
2022-09-15T13:27:33.066Z,18.99
2022-09-15T13:30:09.330Z,18.99
2022-09-15T13:32:57.052Z,19.26
2022-09-15T13:35:46.415Z,19.35
2022-09-15T13:38:32.221Z,19.59
2022-09-15T13:41:35.762Z,19.07
2022-09-15T13:44:28.289Z,19.07
2022-09-15T13:47:14.341Z,18.51
2022-09-15T13:50:09.273Z,18.46
2022-09-15T13:52:35.575Z,17.92
2022-09-15T13:55:08.103Z,17.32
2022-09-15T14:00:30.627Z,16.22
2022-09-15T14:03:16.499Z,16.26
2022-09-15T14:05:44.635Z,16.21
2022-09-15T14:08:18.383Z,16.14
2022-09-15T14:10:50.190Z,16.08
2022-09-15T14:13:19.984Z,16.34
2022-09-15T14:16:01.161Z,16.15
2022-09-15T14:18:28.502Z,16.11
2022-09-15T14:21:00.359Z,16.29
2022-09-15T14:23:26.786Z,16.24
2022-09-15T14:25:53.309Z,16.31
2022-09-15T14:28:31.516Z,16.40
2022-09-15T14:31:01.649Z,16.40
2022-09-15T14:33:39.074Z,16.52
2022-09-15T14:36:22.829Z,16.54
2022-09-15T14:39:10.870Z,16.73
2022-09-15T14:41:38.994Z,16.42
2022-09-15T14:47:28.530Z,16.47
2022-09-15T14:50:15.210Z,16.44
2022-09-15T14:52:46.463Z,16.53
2022-09-15T14:55:20.753Z,16.55
2022-09-15T14:58:12.679Z,16.66
2022-09-15T15:01:30.274Z,16.78
2022-09-15T15:04:10.656Z,17.10
2022-09-15T15:06:51.450Z,16.81
2022-09-15T15:09:17.732Z,16.96
2022-09-15T15:11:44.471Z,16.69
2022-09-15T15:14:12.400Z,16.74
2022-09-15T15:16:50.596Z,16.84
2022-09-15T15:19:33.906Z,16.79
2022-09-15T15:22:12.933Z,16.55
2022-09-15T15:24:50.986Z,16.52
2022-09-15T15:27:41.466Z,16.39
2022-09-15T15:30:26.449Z,16.35
2022-09-15T15:32:54.003Z,16.15
2022-09-15T15:35:20.664Z,15.97
2022-09-15T15:37:47.905Z,16.15
2022-09-15T15:40:18.005Z,15.91
2022-09-15T15:43:01.975Z,15.64
2022-09-15T15:45:31.097Z,15.55
2022-09-15T15:47:57.597Z,15.32
2022-09-15T15:50:28.090Z,15.20
2022-09-15T15:52:54.788Z,14.81
2022-09-15T15:55:30.862Z,14.79
2022-09-15T15:57:57.229Z,14.63
2022-09-15T16:00:28.772Z,14.43
2022-09-15T16:02:55.795Z,14.19
2022-09-15T16:05:26.520Z,14.44
2022-09-15T16:07:54.812Z,14.36
2022-09-15T16:10:23.497Z,14.18
2022-09-15T16:12:50.507Z,14.14
2022-09-15T16:15:20.571Z,14.25
2022-09-15T16:17:47.784Z,14.18
2022-09-15T16:20:24.988Z,14.26
2022-09-15T16:22:52.095Z,14.55
2022-09-15T16:25:28.626Z,14.43
2022-09-15T16:27:55.018Z,14.32
2022-09-15T16:30:21.408Z,14.25
2022-09-15T16:32:47.768Z,14.25
2022-09-15T16:35:26.758Z,14.21
2022-09-15T16:37:53.134Z,14.34
2022-09-15T16:40:19.560Z,14.14
2022-09-15T16:42:47.346Z,14.12
2022-09-15T16:45:40.622Z,14.21
2022-09-15T16:48:08.192Z,14.35
2022-09-15T16:50:35.254Z,14.08
2022-09-15T16:53:01.779Z,14.14
2022-09-15T16:55:35.823Z,14.17
2022-09-15T16:58:03.983Z,14.22
2022-09-15T17:00:32.912Z,14.16
2022-09-15T17:02:59.580Z,14.12
2022-09-15T17:05:29.482Z,14.19
2022-09-15T17:07:56.484Z,14.21
2022-09-15T17:10:23.233Z,14.15
2022-09-15T17:12:49.884Z,14.07
2022-09-15T17:15:18.514Z,14.23
2022-09-15T17:17:44.980Z,14.12
2022-09-15T17:20:11.379Z,14.12
2022-09-15T17:22:37.711Z,14.12
2022-09-15T17:25:26.636Z,14.03
2022-09-15T17:27:53.326Z,13.91
2022-09-15T17:30:21.755Z,13.58
2022-09-15T17:32:48.700Z,13.50
2022-09-15T17:35:24.603Z,13.45
2022-09-15T17:37:51.750Z,13.40
2022-09-15T17:40:20.625Z,13.34
2022-09-15T17:42:49.021Z,13.36
2022-09-15T17:45:23.124Z,13.53
2022-09-15T17:47:50.176Z,13.35
2022-09-15T17:50:18.179Z,13.31
2022-09-15T17:52:45.533Z,13.33
2022-09-15T17:55:26.734Z,13.23
2022-09-15T17:57:54.443Z,13.08
2022-09-15T18:00:21.916Z,13.08
2022-09-15T18:02:51.337Z,12.98
2022-09-15T18:05:27.734Z,12.98
2022-09-15T18:07:55.912Z,13.01
2022-09-15T18:10:23.263Z,13.07
2022-09-15T18:12:53.552Z,12.91
2022-09-15T18:15:25.891Z,12.76
2022-09-15T18:17:55.013Z,12.62
2022-09-15T18:20:24.346Z,12.60
2022-09-15T18:22:50.934Z,12.67
2022-09-15T18:25:18.985Z,12.63
2022-09-15T18:27:46.549Z,12.62
2022-09-15T18:30:13.523Z,12.56
2022-09-15T18:32:39.903Z,12.54
2022-09-15T18:35:07.423Z,12.78
2022-09-15T18:37:33.759Z,12.73
2022-09-15T18:40:00.173Z,12.69
2022-09-15T18:42:29.743Z,12.39
2022-09-15T18:44:57.675Z,12.47
2022-09-15T18:47:24.041Z,12.40
2022-09-15T18:49:50.447Z,12.44
2022-09-15T18:52:16.823Z,12.37
2022-09-15T18:54:43.216Z,12.44
2022-09-15T18:57:09.720Z,12.44
2022-09-15T18:59:36.065Z,12.41
2022-09-15T19:02:02.628Z,12.41
2022-09-15T19:04:32.682Z,12.31
2022-09-15T19:07:00.559Z,12.28
2022-09-15T19:09:26.893Z,12.22
2022-09-15T19:11:53.237Z,12.43
2022-09-15T19:14:19.766Z,12.13
2022-09-15T19:16:57.682Z,12.41
2022-09-15T19:19:25.138Z,12.41
2022-09-15T19:21:51.747Z,12.49
2022-09-15T19:24:18.150Z,12.12
2022-09-15T19:26:46.717Z,12.41
2022-09-15T19:29:13.998Z,12.28
2022-09-15T19:31:42.152Z,12.39
2022-09-15T19:34:08.899Z,12.44
2022-09-15T19:36:35.295Z,12.19
2022-09-15T19:39:03.320Z,12.56
2022-09-15T19:41:30.745Z,12.35
2022-09-15T19:44:00.284Z,12.30
2022-09-15T19:46:26.918Z,12.27
2022-09-15T19:48:53.787Z,12.06
2022-09-15T19:51:21.587Z,12.12
2022-09-15T19:53:48.060Z,11.97
2022-09-15T19:56:18.391Z,11.99
2022-09-15T19:58:45.639Z,11.91
2022-09-15T20:01:12.055Z,11.92
2022-09-15T20:03:39.070Z,11.75
2022-09-15T20:06:08.306Z,11.70
2022-09-15T20:08:35.787Z,11.55
2022-09-15T20:11:06.932Z,11.57
2022-09-15T20:13:39.072Z,11.26
2022-09-15T20:16:05.917Z,11.52
2022-09-15T20:18:39.267Z,11.38
2022-09-15T20:21:07.525Z,11.42
2022-09-15T20:23:34.419Z,11.29
2022-09-15T20:26:07.131Z,11.42
2022-09-15T20:28:34.296Z,11.31
2022-09-15T20:31:13.708Z,11.36
2022-09-15T20:33:42.898Z,11.24
2022-09-15T20:36:12.692Z,11.16
2022-09-15T20:38:39.843Z,11.38
2022-09-15T20:41:08.520Z,11.24
2022-09-15T20:43:37.326Z,11.25
2022-09-15T20:46:06.681Z,11.21
2022-09-15T20:48:36.255Z,11.22
2022-09-15T20:51:05.560Z,11.38
2022-09-15T20:53:32.764Z,11.40
2022-09-15T20:55:59.861Z,11.49
2022-09-15T20:58:26.524Z,11.50
2022-09-15T21:01:07.561Z,11.57
2022-09-15T21:03:35.644Z,11.60
2022-09-15T21:06:05.002Z,11.65
2022-09-15T21:08:31.433Z,11.55
2022-09-15T21:10:59.326Z,11.66
2022-09-15T21:13:29.144Z,11.77
2022-09-15T21:16:02.083Z,11.71
2022-09-15T21:18:33.806Z,11.70
2022-09-15T21:21:02.974Z,11.68
2022-09-15T21:23:38.018Z,11.45
2022-09-15T21:26:07.240Z,11.47
2022-09-15T21:28:34.155Z,11.37
2022-09-15T21:31:11.521Z,11.33
2022-09-15T21:33:39.253Z,11.25
2022-09-15T21:36:12.415Z,11.27
2022-09-15T21:38:41.281Z,11.25
2022-09-15T21:41:09.748Z,11.25
2022-09-15T21:43:38.208Z,11.28
2022-09-15T21:46:07.101Z,11.09
2022-09-15T21:48:35.213Z,11.22
2022-09-15T21:51:03.108Z,11.20
2022-09-15T21:53:29.840Z,11.12
2022-09-15T21:55:56.623Z,11.11
2022-09-15T21:58:26.091Z,10.81
2022-09-15T22:00:53.289Z,11.12
2022-09-15T22:03:20.441Z,11.09
2022-09-15T22:05:47.830Z,11.11
2022-09-15T22:08:16.572Z,11.11
2022-09-15T22:10:44.029Z,11.13
2022-09-15T22:13:11.404Z,10.94
2022-09-15T22:15:37.794Z,11.17
2022-09-15T22:18:05.063Z,11.21
2022-09-15T22:20:31.541Z,11.22
2022-09-15T22:23:01.251Z,11.33
2022-09-15T22:25:27.754Z,11.34
2022-09-15T22:27:54.151Z,11.40
2022-09-15T22:30:20.528Z,11.40
2022-09-15T22:32:46.916Z,11.38
2022-09-15T22:35:13.331Z,11.43
2022-09-15T22:37:39.762Z,11.43
2022-09-15T22:40:06.633Z,11.54
2022-09-15T22:42:33.058Z,11.40
2022-09-15T22:44:59.499Z,11.40
2022-09-15T22:47:25.885Z,11.42
2022-09-15T22:49:52.317Z,11.39
2022-09-15T22:52:21.084Z,11.02
2022-09-15T22:54:47.439Z,11.24
2022-09-15T22:57:13.811Z,11.19
2022-09-15T22:59:40.157Z,10.88
2022-09-15T23:02:06.547Z,11.03
2022-09-15T23:04:32.939Z,10.78
2022-09-15T23:06:59.288Z,10.96
2022-09-15T23:09:26.358Z,10.89
2022-09-15T23:11:52.813Z,10.78
2022-09-15T23:14:19.161Z,10.65
2022-09-15T23:16:45.608Z,10.73
2022-09-15T23:19:13.359Z,10.54
2022-09-15T23:21:39.784Z,10.58
2022-09-15T23:24:06.458Z,10.72
2022-09-15T23:26:32.948Z,10.75
2022-09-15T23:28:59.325Z,10.78
2022-09-15T23:31:25.775Z,10.77
2022-09-15T23:33:52.320Z,10.94
2022-09-15T23:36:19.572Z,10.83
2022-09-15T23:38:46.734Z,10.86
2022-09-15T23:41:14.612Z,10.87
2022-09-15T23:43:40.991Z,10.83
2022-09-15T23:46:07.787Z,10.93
2022-09-15T23:48:34.515Z,10.97
2022-09-15T23:51:01.398Z,11.04
2022-09-15T23:53:28.353Z,10.94
2022-09-15T23:55:54.782Z,11.03
2022-09-15T23:58:21.153Z,11.06
